Time,TemperatureF,DewpointF,PressureIn,WindDirection,WindDirectionDegrees,WindSpeedMPH,WindSpeedGustMPH,Humidity,HourlyPrecipIn,Conditions,Clouds,dailyrainin,SoftwareType,DateUTC
2013-02-04 00:01:00,44.0,42.0,30.19,SW,221,0.0,5.0,94,0.00,,,0.07,,2013-02-04 08:01:00,
2013-02-04 00:11:00,44.0,42.0,30.19,SW,221,0.0,5.0,94,0.00,,,0.07,,2013-02-04 08:11:00,
2013-02-04 00:21:00,44.0,43.0,30.20,West,261,0.0,4.0,95,0.00,,,0.07,,2013-02-04 08:21:00,
2013-02-04 00:31:00,44.0,43.0,30.19,SSW,211,0.0,3.0,95,0.00,,,0.07,,2013-02-04 08:31:00,
2013-02-04 00:41:00,44.0,43.0,30.19,SSW,211,0.0,3.0,95,0.00,,,0.07,,2013-02-04 08:41:00,
2013-02-04 00:52:00,44.0,42.0,30.18,SSW,212,2.0,5.0,94,0.00,,,0.07,,2013-02-04 08:52:00,
2013-02-04 01:01:00,44.0,42.0,30.18,SSW,198,1.0,4.0,94,0.00,,,0.07,,2013-02-04 09:01:00,
2013-02-04 01:11:00,44.0,42.0,30.18,SSW,198,1.0,4.0,94,0.00,,,0.07,,2013-02-04 09:11:00,
2013-02-04 01:21:00,44.0,42.0,30.18,SW,232,2.0,5.0,94,0.00,,,0.07,,2013-02-04 09:21:00,
2013-02-04 01:31:00,44.0,42.0,30.19,SW,232,2.0,4.0,94,0.00,,,0.07,,2013-02-04 09:31:00,
2013-02-04 01:41:00,44.0,42.0,30.19,SW,232,2.0,4.0,94,0.00,,,0.07,,2013-02-04 09:41:00,
2013-02-04 01:52:00,44.0,42.0,30.19,SW,235,3.0,4.0,94,0.00,,,0.07,,2013-02-04 09:52:00,
2013-02-04 02:01:00,44.0,42.0,30.19,SSW,202,0.0,7.0,94,0.00,,,0.07,,2013-02-04 10:01:00,
2013-02-04 02:11:00,44.0,42.0,30.19,SSW,202,0.0,7.0,94,0.00,,,0.07,,2013-02-04 10:11:00,
2013-02-04 02:21:00,44.0,42.0,30.19,SSW,202,1.0,7.0,94,0.00,,,0.07,,2013-02-04 10:21:00,
2013-02-04 02:32:00,44.0,42.0,30.17,SSE,164,1.0,9.0,94,0.00,,,0.07,,2013-02-04 10:32:00,
2013-02-04 02:41:00,44.0,42.0,30.17,SSE,164,1.0,9.0,94,0.00,,,0.07,,2013-02-04 10:41:00,
2013-02-04 02:52:00,44.0,42.0,30.18,SW,222,1.0,6.0,93,0.00,,,0.07,,2013-02-04 10:52:00,
2013-02-04 03:01:00,44.0,42.0,30.18,SSW,196,4.0,10.0,92,0.00,,,0.07,,2013-02-04 11:01:00,
2013-02-04 03:11:00,44.0,42.0,30.18,SSW,196,4.0,10.0,92,0.00,,,0.07,,2013-02-04 11:11:00,
2013-02-04 03:22:00,44.0,42.0,30.18,South,185,2.0,5.0,91,0.00,,,0.07,,2013-02-04 11:22:00,
2013-02-04 03:32:00,44.0,42.0,30.18,South,177,4.0,7.0,91,0.00,,,0.07,,2013-02-04 11:32:00,
2013-02-04 03:41:00,44.0,42.0,30.18,South,177,4.0,7.0,91,0.00,,,0.07,,2013-02-04 11:41:00,
2013-02-04 03:52:00,44.0,41.0,30.18,SSW,194,4.0,10.0,90,0.00,,,0.07,,2013-02-04 11:52:00,
2013-02-04 04:02:00,44.0,41.0,30.18,SSW,193,2.0,10.0,89,0.00,,,0.07,,2013-02-04 12:02:00,
2013-02-04 04:12:00,44.0,41.0,30.18,SSW,193,2.0,10.0,89,0.00,,,0.07,,2013-02-04 12:12:00,
2013-02-04 04:21:00,44.0,41.0,30.18,SSW,212,4.0,12.0,89,0.00,,,0.07,,2013-02-04 12:21:00,
2013-02-04 04:32:00,44.0,41.0,30.17,SSW,192,2.0,10.0,89,0.00,,,0.07,,2013-02-04 12:32:00,
2013-02-04 04:42:00,44.0,41.0,30.17,SSW,192,2.0,10.0,89,0.00,,,0.07,,2013-02-04 12:42:00,
2013-02-04 04:52:00,44.0,41.0,30.16,SE,146,6.0,12.0,89,0.00,,,0.07,,2013-02-04 12:52:00,
2013-02-04 05:01:00,44.0,41.0,30.16,South,189,1.0,5.0,89,0.00,,,0.07,,2013-02-04 13:01:00,
2013-02-04 05:11:00,44.0,41.0,30.15,SSE,157,1.0,4.0,90,0.00,,,0.07,,2013-02-04 13:11:00,
2013-02-04 05:21:00,44.0,41.0,30.15,SSE,157,1.0,4.0,90,0.00,,,0.07,,2013-02-04 13:21:00,
2013-02-04 05:32:00,44.0,41.0,30.15,South,187,3.0,7.0,90,0.00,,,0.07,,2013-02-04 13:32:00,
2013-02-04 05:41:00,44.0,41.0,30.15,South,187,3.0,7.0,90,0.00,,,0.07,,2013-02-04 13:41:00,
2013-02-04 05:52:00,44.0,41.0,30.16,SSE,159,2.0,6.0,90,0.00,,,0.07,,2013-02-04 13:52:00,
2013-02-04 06:02:00,44.0,42.0,30.16,SE,130,3.0,5.0,91,0.00,,,0.07,,2013-02-04 14:02:00,
2013-02-04 06:11:00,44.0,42.0,30.16,SE,130,3.0,5.0,91,0.00,,,0.07,,2013-02-04 14:11:00,
2013-02-04 06:21:00,44.0,42.0,30.16,SE,131,2.0,4.0,91,0.00,,,0.07,,2013-02-04 14:21:00,
2013-02-04 06:32:00,44.0,42.0,30.15,SE,131,0.0,4.0,91,0.00,,,0.07,,2013-02-04 14:32:00,
2013-02-04 06:42:00,44.0,42.0,30.15,SE,131,0.0,4.0,91,0.00,,,0.07,,2013-02-04 14:42:00,
2013-02-04 06:52:00,44.0,42.0,30.15,SE,131,2.0,4.0,91,0.00,,,0.07,,2013-02-04 14:52:00,
2013-02-04 07:02:00,44.0,41.0,30.15,SE,131,2.0,4.0,90,0.00,,,0.07,,2013-02-04 15:02:00,
2013-02-04 07:11:00,44.0,41.0,30.15,SE,131,2.0,4.0,90,0.00,,,0.07,,2013-02-04 15:11:00,
2013-02-04 07:22:00,44.0,41.0,30.14,SE,130,2.0,6.0,90,0.00,,,0.07,,2013-02-04 15:22:00,
2013-02-04 07:33:00,44.0,41.0,30.14,SE,131,2.0,6.0,90,0.00,,,0.07,,2013-02-04 15:33:00,
2013-02-04 07:42:00,44.0,41.0,30.14,SE,131,2.0,6.0,90,0.00,,,0.07,,2013-02-04 15:42:00,
2013-02-04 07:52:00,44.0,41.0,30.15,SE,133,2.0,4.0,90,0.00,,,0.07,,2013-02-04 15:52:00,
2013-02-04 08:02:00,44.0,41.0,30.16,SE,133,1.0,4.0,90,0.00,,,0.07,,2013-02-04 16:02:00,
2013-02-04 08:11:00,44.0,41.0,30.16,SE,133,1.0,4.0,90,0.00,,,0.07,,2013-02-04 16:11:00,
2013-02-04 08:21:00,44.0,41.0,30.15,SE,134,1.0,4.0,90,0.00,,,0.07,,2013-02-04 16:21:00,
2013-02-04 08:32:00,44.0,41.0,30.16,SE,134,2.0,5.0,89,0.00,,,0.07,,2013-02-04 16:32:00,
2013-02-04 08:42:00,44.0,41.0,30.16,SE,134,2.0,5.0,89,0.00,,,0.07,,2013-02-04 16:42:00,
2013-02-04 08:51:00,45.0,42.0,30.16,SE,134,1.0,4.0,89,0.00,,,0.07,,2013-02-04 16:51:00,
2013-02-04 09:01:00,45.0,42.0,30.17,SE,134,1.0,5.0,89,0.00,,,0.06,,2013-02-04 17:01:00,
2013-02-04 09:11:00,45.0,42.0,30.17,SE,134,1.0,5.0,89,0.00,,,0.06,,2013-02-04 17:11:00,
2013-02-04 09:21:00,45.0,42.0,30.15,SE,134,2.0,4.0,88,0.00,,,0.06,,2013-02-04 17:21:00,
2013-02-04 09:31:00,45.0,42.0,30.14,SE,146,5.0,10.0,88,0.00,,,0.06,,2013-02-04 17:31:00,
2013-02-04 09:42:00,45.0,42.0,30.14,SE,146,5.0,10.0,88,0.00,,,0.06,,2013-02-04 17:42:00,
2013-02-04 09:52:00,45.0,41.0,30.14,SSE,148,4.0,7.0,87,0.00,,,0.06,,2013-02-04 17:52:00,
2013-02-04 10:02:00,45.0,41.0,30.14,SE,144,2.0,5.0,87,0.00,,,0.06,,2013-02-04 18:02:00,
2013-02-04 10:11:00,45.0,41.0,30.14,SE,144,2.0,5.0,87,0.00,,,0.06,,2013-02-04 18:11:00,
2013-02-04 10:21:00,46.0,42.0,30.15,SE,131,2.0,6.0,86,0.00,,,0.06,,2013-02-04 18:21:00,
2013-02-04 10:31:00,46.0,42.0,30.15,SE,144,1.0,6.0,85,0.00,,,0.06,,2013-02-04 18:31:00,
2013-02-04 10:41:00,46.0,42.0,30.15,SE,144,1.0,6.0,85,0.00,,,0.06,,2013-02-04 18:41:00,
2013-02-04 10:52:00,47.0,43.0,30.15,South,190,2.0,7.0,85,0.00,,,0.06,,2013-02-04 18:52:00,
2013-02-04 11:01:00,47.0,43.0,30.15,SE,140,1.0,5.0,85,0.00,,,0.06,,2013-02-04 19:01:00,
2013-02-04 11:11:00,47.0,43.0,30.15,SE,140,1.0,5.0,85,0.00,,,0.06,,2013-02-04 19:11:00,
2013-02-04 11:21:00,47.0,42.0,30.15,SE,140,1.0,4.0,84,0.00,,,0.06,,2013-02-04 19:21:00,
2013-02-04 11:31:00,47.0,42.0,30.15,ESE,102,1.0,5.0,84,0.00,,,0.06,,2013-02-04 19:31:00,
2013-02-04 11:41:00,47.0,42.0,30.15,ESE,102,1.0,5.0,84,0.00,,,0.06,,2013-02-04 19:41:00,
2013-02-04 11:52:00,48.0,43.0,30.14,South,175,1.0,5.0,83,0.00,,,0.06,,2013-02-04 19:52:00,
2013-02-04 12:01:00,48.0,43.0,30.14,South,175,1.0,3.0,82,0.00,,,0.06,,2013-02-04 20:01:00,
2013-02-04 12:11:00,48.0,43.0,30.14,South,175,1.0,3.0,82,0.00,,,0.06,,2013-02-04 20:11:00,
2013-02-04 12:21:00,48.0,42.0,30.12,SSW,202,1.0,4.0,81,0.00,,,0.06,,2013-02-04 20:21:00,
2013-02-04 12:31:00,48.0,42.0,30.12,ESE,112,0.0,6.0,80,0.00,,,0.06,,2013-02-04 20:31:00,
2013-02-04 12:42:00,48.0,42.0,30.12,ESE,112,0.0,6.0,80,0.00,,,0.06,,2013-02-04 20:42:00,
2013-02-04 12:52:00,49.0,43.0,30.11,South,183,2.0,5.0,79,0.00,,,0.06,,2013-02-04 20:52:00,
2013-02-04 13:01:00,49.0,43.0,30.10,South,180,0.0,5.0,79,0.00,,,0.06,,2013-02-04 21:01:00,
2013-02-04 13:11:00,49.0,43.0,30.10,South,180,0.0,5.0,79,0.00,,,0.06,,2013-02-04 21:11:00,
2013-02-04 13:22:00,50.0,43.0,30.09,South,180,0.0,4.0,77,0.00,,,0.06,,2013-02-04 21:22:00,
2013-02-04 13:31:00,50.0,43.0,30.07,South,180,0.0,3.0,77,0.00,,,0.06,,2013-02-04 21:31:00,
2013-02-04 13:42:00,50.0,43.0,30.07,South,180,0.0,3.0,77,0.00,,,0.06,,2013-02-04 21:42:00,
2013-02-04 13:52:00,50.0,43.0,30.07,East,94,0.0,2.0,76,0.00,,,0.06,,2013-02-04 21:52:00,
2013-02-04 14:01:00,50.0,42.0,30.06,SE,134,3.0,4.0,75,0.00,,,0.05,,2013-02-04 22:01:00,
2013-02-04 14:11:00,50.0,42.0,30.06,SE,134,3.0,4.0,75,0.00,,,0.05,,2013-02-04 22:11:00,
2013-02-04 14:21:00,50.0,43.0,30.05,SE,136,0.0,4.0,76,0.00,,,0.05,,2013-02-04 22:21:00,
2013-02-04 14:32:00,50.0,43.0,30.04,SE,136,2.0,3.0,76,0.00,,,0.05,,2013-02-04 22:32:00,
2013-02-04 14:41:00,50.0,43.0,30.04,SE,136,2.0,3.0,76,0.00,,,0.05,,2013-02-04 22:41:00,
2013-02-04 14:52:00,50.0,43.0,30.03,ESE,117,2.0,3.0,77,0.00,,,0.05,,2013-02-04 22:52:00,
2013-02-04 15:01:00,50.0,43.0,30.03,ESE,111,1.0,4.0,77,0.00,,,0.05,,2013-02-04 23:01:00,
2013-02-04 15:11:00,50.0,43.0,30.03,ESE,111,1.0,4.0,77,0.00,,,0.05,,2013-02-04 23:11:00,
2013-02-04 15:21:00,50.0,43.0,30.02,ESE,103,0.0,3.0,76,0.00,,,0.05,,2013-02-04 23:21:00,
2013-02-04 15:31:00,50.0,43.0,30.02,ESE,103,0.0,2.0,77,0.00,,,0.05,,2013-02-04 23:31:00,
2013-02-04 15:41:00,50.0,43.0,30.02,ESE,103,0.0,2.0,77,0.00,,,0.05,,2013-02-04 23:41:00,
2013-02-04 15:52:00,51.0,44.0,30.01,ESE,103,1.0,3.0,77,0.00,,,0.05,,2013-02-04 23:52:00,
2013-02-04 16:01:00,50.0,43.0,29.99,ESE,103,1.0,3.0,77,0.00,,,0.05,,2013-02-05 00:01:00,
2013-02-04 16:11:00,50.0,43.0,29.99,ESE,103,1.0,3.0,77,0.00,,,0.05,,2013-02-05 00:11:00,
2013-02-04 16:21:00,50.0,44.0,29.99,ESE,103,0.0,1.0,79,0.00,,,0.05,,2013-02-05 00:21:00,
2013-02-04 16:31:00,50.0,44.0,29.99,ESE,103,0.0,2.0,80,0.00,,,0.05,,2013-02-05 00:31:00,
2013-02-04 16:41:00,50.0,44.0,29.99,ESE,103,0.0,2.0,80,0.00,,,0.05,,2013-02-05 00:41:00,
2013-02-04 16:52:00,50.0,44.0,30.01,ESE,103,1.0,3.0,80,0.00,,,0.05,,2013-02-05 00:52:00,
2013-02-04 17:01:00,49.0,43.0,30.00,NW,311,1.0,5.0,79,0.00,,,0.05,,2013-02-05 01:01:00,
2013-02-04 17:11:00,49.0,43.0,30.00,NW,311,1.0,5.0,79,0.00,,,0.05,,2013-02-05 01:11:00,
2013-02-04 17:21:00,49.0,43.0,30.00,NW,311,2.0,3.0,79,0.00,,,0.05,,2013-02-05 01:21:00,
2013-02-04 17:32:00,48.0,42.0,30.00,NW,311,0.0,2.0,79,0.00,,,0.05,,2013-02-05 01:32:00,
2013-02-04 17:42:00,48.0,42.0,30.00,NW,311,0.0,2.0,79,0.00,,,0.05,,2013-02-05 01:42:00,
2013-02-04 17:52:00,48.0,42.0,30.00,NW,311,0.0,3.0,80,0.00,,,0.05,,2013-02-05 01:52:00,
2013-02-04 18:01:00,48.0,42.0,29.99,NW,311,0.0,2.0,80,0.00,,,0.05,,2013-02-05 02:01:00,
2013-02-04 18:11:00,48.0,42.0,29.99,NW,311,0.0,2.0,80,0.00,,,0.05,,2013-02-05 02:11:00,
2013-02-04 18:21:00,48.0,42.0,29.99,SSW,200,1.0,4.0,81,0.00,,,0.05,,2013-02-05 02:21:00,
2013-02-04 18:31:00,48.0,43.0,30.00,SSW,205,1.0,4.0,82,0.00,,,0.05,,2013-02-05 02:31:00,
2013-02-04 18:41:00,48.0,43.0,30.00,SSW,205,1.0,4.0,82,0.00,,,0.05,,2013-02-05 02:41:00,
2013-02-04 18:52:00,48.0,43.0,29.99,SSW,205,1.0,3.0,82,0.00,,,0.05,,2013-02-05 02:52:00,
2013-02-04 19:01:00,48.0,43.0,29.97,SSW,205,0.0,3.0,82,0.00,,,0.04,,2013-02-05 03:01:00,
2013-02-04 19:11:00,48.0,43.0,29.97,SSW,205,0.0,3.0,82,0.00,,,0.04,,2013-02-05 03:11:00,
2013-02-04 19:21:00,48.0,43.0,29.95,ENE,71,3.0,5.0,83,0.00,,,0.04,,2013-02-05 03:21:00,
2013-02-04 19:31:00,48.0,44.0,29.93,ESE,107,2.0,5.0,85,0.00,,,0.04,,2013-02-05 03:31:00,
2013-02-04 19:41:00,48.0,44.0,29.93,ESE,107,2.0,5.0,85,0.00,,,0.04,,2013-02-05 03:41:00,
2013-02-04 19:52:00,47.0,43.0,29.92,ESE,105,1.0,6.0,86,0.00,,,0.04,,2013-02-05 03:52:00,
2013-02-04 20:01:00,47.0,43.0,29.91,ESE,107,2.0,9.0,87,0.01,,,0.02,,2013-02-05 04:01:00,
2013-02-04 20:11:00,47.0,43.0,29.91,ESE,107,2.0,9.0,87,0.01,,,0.02,,2013-02-05 04:11:00,
2013-02-04 20:21:00,47.0,44.0,29.90,SE,134,2.0,6.0,88,0.01,,,0.02,,2013-02-05 04:21:00,
2013-02-04 20:31:00,47.0,44.0,29.88,East,88,2.0,7.0,88,0.01,,,0.02,,2013-02-05 04:31:00,
2013-02-04 20:41:00,47.0,44.0,29.88,East,88,2.0,7.0,88,0.01,,,0.02,,2013-02-05 04:41:00,
2013-02-04 20:52:00,47.0,44.0,29.88,SE,126,3.0,9.0,89,0.01,,,0.02,,2013-02-05 04:52:00,
2013-02-04 21:01:00,47.0,44.0,29.87,ESE,111,4.0,7.0,89,0.00,,,0.01,,2013-02-05 05:01:00,
2013-02-04 21:11:00,47.0,44.0,29.87,ESE,111,4.0,7.0,89,0.00,,,0.01,,2013-02-05 05:11:00,
2013-02-04 21:21:00,47.0,44.0,29.88,SSE,148,1.0,6.0,89,0.00,,,0.01,,2013-02-05 05:21:00,
2013-02-04 21:31:00,47.0,44.0,29.89,NW,315,3.0,9.0,89,0.00,,,0.01,,2013-02-05 05:31:00,
2013-02-04 21:41:00,47.0,44.0,29.89,NW,315,3.0,9.0,89,0.00,,,0.01,,2013-02-05 05:41:00,
2013-02-04 21:52:00,47.0,44.0,29.88,NW,306,1.0,5.0,90,0.00,,,0.01,,2013-02-05 05:52:00,
2013-02-04 22:01:00,47.0,44.0,29.89,West,259,2.0,5.0,90,0.00,,,0.01,,2013-02-05 06:01:00,
2013-02-04 22:11:00,47.0,44.0,29.89,West,259,2.0,5.0,90,0.00,,,0.01,,2013-02-05 06:11:00,
2013-02-04 22:21:00,46.0,43.0,29.89,WSW,253,4.0,7.0,90,0.00,,,0.01,,2013-02-05 06:21:00,
2013-02-04 22:31:00,46.0,43.0,29.90,West,275,0.0,4.0,90,0.00,,,0.01,,2013-02-05 06:31:00,
2013-02-04 22:41:00,46.0,43.0,29.90,West,275,0.0,4.0,90,0.00,,,0.01,,2013-02-05 06:41:00,
2013-02-04 22:52:00,46.0,43.0,29.88,West,275,1.0,2.0,90,0.00,,,0.01,,2013-02-05 06:52:00,
2013-02-04 23:01:00,46.0,43.0,29.88,West,275,0.0,2.0,90,0.00,,,0.01,,2013-02-05 07:01:00,
2013-02-04 23:11:00,46.0,43.0,29.88,West,275,0.0,2.0,90,0.00,,,0.01,,2013-02-05 07:11:00,
2013-02-04 23:22:00,46.0,43.0,29.88,West,275,1.0,2.0,90,0.00,,,0.01,,2013-02-05 07:22:00,
2013-02-04 23:31:00,46.0,43.0,29.88,SSW,196,1.0,7.0,89,0.00,,,0.01,,2013-02-05 07:31:00,
2013-02-04 23:41:00,46.0,43.0,29.88,SSW,196,1.0,7.0,89,0.00,,,0.01,,2013-02-05 07:41:00,
2013-02-04 23:52:00,46.0,43.0,29.88,South,178,3.0,12.0,88,0.00,,,0.01,,2013-02-05 07:52:00,